createdAt,value
2019-04-16T00:01:07.847Z,53.76
2019-04-16T00:04:16.063Z,53.25
2019-04-16T00:07:26.773Z,54.11
2019-04-16T00:10:38.114Z,54.57
2019-04-16T00:13:49.405Z,55.02
2019-04-16T00:16:53.047Z,54.75
2019-04-16T00:19:56.693Z,55.23
2019-04-16T00:23:10.881Z,54.77
2019-04-16T00:26:14.483Z,55.20
2019-04-16T00:29:18.018Z,54.97
2019-04-16T00:32:25.930Z,54.92
2019-04-16T00:35:28.469Z,54.25
2019-04-16T00:38:40.482Z,54.07
2019-04-16T00:41:37.277Z,54.00
2019-04-16T00:44:40.954Z,53.87
2019-04-16T00:47:44.613Z,53.58
2019-04-16T00:50:48.110Z,53.48
2019-04-16T00:53:51.632Z,53.13
2019-04-16T00:56:55.124Z,53.42
2019-04-16T00:59:58.715Z,54.27
2019-04-16T01:03:05.320Z,54.20
2019-04-16T01:06:08.943Z,54.50
2019-04-16T01:09:12.470Z,54.89
2019-04-16T01:12:16.047Z,55.33
2019-04-16T01:15:19.558Z,55.36
2019-04-16T01:18:23.190Z,55.93
2019-04-16T01:21:27.857Z,56.00
2019-04-16T01:24:31.730Z,55.93
2019-04-16T01:27:39.815Z,56.07
2019-04-16T01:30:45.118Z,56.72
2019-04-16T01:33:53.008Z,56.47
2019-04-16T01:36:58.170Z,56.31
2019-04-16T01:40:03.314Z,56.23
2019-04-16T01:43:07.093Z,56.34
2019-04-16T01:46:10.650Z,56.49
2019-04-16T01:49:14.172Z,56.72
2019-04-16T01:52:18.965Z,56.83
2019-04-16T01:55:25.645Z,56.93
2019-04-16T01:58:28.383Z,57.01
2019-04-16T02:01:31.896Z,57.06
2019-04-16T02:04:35.409Z,57.10
2019-04-16T02:07:38.906Z,57.35
2019-04-16T02:10:42.419Z,57.59
2019-04-16T02:13:46.869Z,57.67
2019-04-16T02:16:50.521Z,57.79
2019-04-16T02:19:54.121Z,57.85
2019-04-16T02:22:59.186Z,57.96
2019-04-16T02:26:02.712Z,57.95
2019-04-16T02:29:06.235Z,57.99
2019-04-16T02:32:09.847Z,57.76
2019-04-16T02:35:13.636Z,58.05
2019-04-16T02:38:18.298Z,58.17
2019-04-16T02:41:23.367Z,58.48
2019-04-16T02:44:27.108Z,58.80
2019-04-16T02:47:30.676Z,58.89
2019-04-16T02:50:39.071Z,58.69
2019-04-16T02:53:58.685Z,58.62
2019-04-16T02:57:03.014Z,58.81
2019-04-16T03:00:08.412Z,58.93
2019-04-16T03:03:16.465Z,58.84
2019-04-16T03:06:20.227Z,58.94
2019-04-16T03:09:23.739Z,59.05
2019-04-16T03:12:27.237Z,59.19
2019-04-16T03:15:35.517Z,59.29
2019-04-16T03:18:46.935Z,59.13
2019-04-16T03:21:48.392Z,59.28
2019-04-16T03:24:51.905Z,59.50
2019-04-16T03:27:55.390Z,59.23
2019-04-16T03:30:58.994Z,59.53
2019-04-16T03:34:02.573Z,59.49
2019-04-16T03:37:06.280Z,59.42
2019-04-16T03:40:17.305Z,59.65
2019-04-16T03:43:16.645Z,59.52
2019-04-16T03:46:20.278Z,59.70
2019-04-16T03:49:24.548Z,59.55
2019-04-16T03:52:29.275Z,59.24
2019-04-16T03:55:32.797Z,59.68
2019-04-16T03:58:38.635Z,60.00
2019-04-16T04:01:45.607Z,60.13
2019-04-16T04:04:47.438Z,60.31
2019-04-16T04:07:51.098Z,60.56
2019-04-16T04:10:54.682Z,60.59
2019-04-16T04:13:58.178Z,60.73
2019-04-16T04:17:05.448Z,60.72
2019-04-16T04:20:08.982Z,61.07
2019-04-16T04:23:12.689Z,61.10
2019-04-16T04:26:16.261Z,61.38
2019-04-16T04:29:24.742Z,61.52
2019-04-16T04:32:27.557Z,61.13
2019-04-16T04:35:31.124Z,61.51
2019-04-16T04:38:37.418Z,61.33
2019-04-16T04:41:40.809Z,61.53
2019-04-16T04:44:46.834Z,61.50
2019-04-16T04:47:51.622Z,60.61
2019-04-16T04:50:54.972Z,60.72
2019-04-16T04:53:58.478Z,59.63
2019-04-16T04:57:02.016Z,59.31
2019-04-16T05:00:09.555Z,58.70
2019-04-16T05:03:31.563Z,58.37
2019-04-16T05:06:36.740Z,57.74
2019-04-16T05:09:40.320Z,56.49
2019-04-16T05:12:43.834Z,56.32
2019-04-16T05:15:47.341Z,55.63
2019-04-16T05:18:50.850Z,54.45
2019-04-16T05:21:54.390Z,53.09
2019-04-16T05:25:01.335Z,52.82
2019-04-16T05:28:03.230Z,51.51
2019-04-16T05:31:06.852Z,51.46
2019-04-16T05:34:10.643Z,51.67
2019-04-16T05:37:16.677Z,52.78
2019-04-16T05:40:19.456Z,51.96
2019-04-16T05:43:23.274Z,51.02
2019-04-16T05:46:28.234Z,52.01
2019-04-16T05:49:32.023Z,51.46
2019-04-16T05:52:36.576Z,50.51
2019-04-16T05:55:41.826Z,50.43
2019-04-16T05:58:45.710Z,52.37
2019-04-16T06:02:01.135Z,50.26
2019-04-16T06:05:07.206Z,48.78
2019-04-16T06:08:11.582Z,47.75
2019-04-16T06:11:27.572Z,48.42
2019-04-16T06:14:31.947Z,47.90
2019-04-16T06:17:49.063Z,48.37
2019-04-16T06:21:10.186Z,46.35
2019-04-16T06:24:18.354Z,47.16
2019-04-16T06:27:35.702Z,44.61
2019-04-16T06:30:47.057Z,43.36
2019-04-16T06:33:58.275Z,42.56
2019-04-16T06:37:03.477Z,41.83
2019-04-16T06:40:12.100Z,44.35
2019-04-16T06:43:17.239Z,42.35
2019-04-16T06:46:39.994Z,41.76
2019-04-16T06:49:44.432Z,41.31
2019-04-16T06:53:05.499Z,40.53
2019-04-16T06:59:40.737Z,43.06
2019-04-16T07:03:01.807Z,42.78
2019-04-16T07:06:03.253Z,43.12
2019-04-16T07:09:09.577Z,43.09
2019-04-16T07:12:15.390Z,41.98
2019-04-16T07:15:22.617Z,41.80
2019-04-16T07:18:24.262Z,40.63
2019-04-16T07:21:27.784Z,39.19
2019-04-16T07:24:32.409Z,38.03
2019-04-16T07:27:39.050Z,37.62
2019-04-16T07:30:46.868Z,36.60
2019-04-16T07:34:03.742Z,36.05
2019-04-16T07:37:25.443Z,35.25
2019-04-16T07:40:46.788Z,34.26
2019-04-16T07:44:10.484Z,34.44
2019-04-16T07:47:19.744Z,34.90
2019-04-16T07:50:35.632Z,35.21
2019-04-16T07:53:40.790Z,34.62
2019-04-16T07:56:55.138Z,32.25
2019-04-16T07:59:58.726Z,31.95
2019-04-16T08:03:02.239Z,31.62
2019-04-16T08:06:05.775Z,30.90
2019-04-16T08:09:09.377Z,31.86
2019-04-16T08:12:29.437Z,31.64
2019-04-16T08:15:18.339Z,31.16
2019-04-16T08:18:22.604Z,31.40
2019-04-16T08:21:26.215Z,30.91
2019-04-16T08:24:34.107Z,30.61
2019-04-16T08:27:37.637Z,30.07
2019-04-16T08:30:41.223Z,30.17
2019-04-16T08:33:44.798Z,30.17
2019-04-16T08:36:48.426Z,32.58
2019-04-16T08:39:52.112Z,30.94
2019-04-16T08:42:57.442Z,32.16
2019-04-16T08:46:01.102Z,30.73
2019-04-16T08:49:05.115Z,30.14
2019-04-16T08:52:10.208Z,29.23
2019-04-16T08:55:14.414Z,29.30
2019-04-16T08:58:18.009Z,29.00
2019-04-16T09:01:23.529Z,28.45
2019-04-16T09:04:27.398Z,30.06
2019-04-16T09:07:39.750Z,28.26
2019-04-16T09:10:44.775Z,27.35
2019-04-16T09:13:53.289Z,28.75
2019-04-16T09:17:04.145Z,28.67
2019-04-16T09:20:09.750Z,30.46
2019-04-16T09:23:13.428Z,30.60
2019-04-16T09:26:30.271Z,28.53
2019-04-16T09:29:51.763Z,27.86
2019-04-16T09:33:01.021Z,28.16
2019-04-16T09:36:09.159Z,26.74
2019-04-16T09:39:30.599Z,27.84
2019-04-16T09:42:40.817Z,26.28
2019-04-16T09:45:44.428Z,27.30
2019-04-16T09:48:49.995Z,27.32
2019-04-16T09:51:53.498Z,25.99
2019-04-16T09:54:58.510Z,23.26
2019-04-16T09:58:06.919Z,21.83
2019-04-16T10:01:11.919Z,20.64
2019-04-16T10:04:17.288Z,20.23
2019-04-16T10:07:20.897Z,19.30
2019-04-16T10:10:28.001Z,21.03
2019-04-16T10:13:35.505Z,19.80
2019-04-16T10:16:35.561Z,19.75
2019-04-16T10:19:43.002Z,22.05
2019-04-16T10:22:49.379Z,21.26
2019-04-16T10:25:54.110Z,20.54
2019-04-16T10:28:59.333Z,19.88
2019-04-16T10:32:03.022Z,20.52
2019-04-16T10:35:06.832Z,20.05
2019-04-16T10:38:27.135Z,21.58
2019-04-16T10:41:56.483Z,19.44
2019-04-16T10:45:02.089Z,20.02
2019-04-16T10:48:22.822Z,20.18
2019-04-16T10:51:33.937Z,20.78
2019-04-16T10:54:39.317Z,19.17
2019-04-16T10:57:44.580Z,19.41
2019-04-16T11:00:52.771Z,19.15
2019-04-16T11:04:07.844Z,19.98
2019-04-16T11:07:19.985Z,19.46
2019-04-16T11:10:23.637Z,18.65
2019-04-16T11:13:37.702Z,19.56
2019-04-16T11:16:43.177Z,19.33
2019-04-16T11:19:46.940Z,18.45
2019-04-16T11:22:50.539Z,19.60
2019-04-16T11:25:54.134Z,18.82
2019-04-16T11:28:57.893Z,19.44
2019-04-16T11:32:01.620Z,19.34
2019-04-16T11:35:06.308Z,18.56
2019-04-16T11:38:09.927Z,18.92
2019-04-16T11:41:13.617Z,19.28
2019-04-16T11:44:17.532Z,18.03
2019-04-16T11:47:21.411Z,18.33
2019-04-16T11:50:25.058Z,16.83
2019-04-16T11:53:28.704Z,17.48
2019-04-16T11:56:32.827Z,16.60
2019-04-16T11:59:38.338Z,17.12
2019-04-16T12:02:59.505Z,16.28
2019-04-16T12:06:07.444Z,17.86
2019-04-16T12:09:24.779Z,18.04
2019-04-16T12:12:30.045Z,18.20
2019-04-16T12:15:35.366Z,18.31
2019-04-16T12:18:40.618Z,18.47
2019-04-16T12:22:02.641Z,18.75
2019-04-16T12:25:08.339Z,20.35
2019-04-16T12:28:13.684Z,18.96
2019-04-16T12:31:28.495Z,16.85
2019-04-16T12:34:36.606Z,17.51
2019-04-16T12:37:58.046Z,16.57
2019-04-16T12:41:03.302Z,17.79
2019-04-16T12:44:15.096Z,16.95
2019-04-16T12:47:22.869Z,19.43
2019-04-16T12:50:37.261Z,21.30
2019-04-16T12:53:42.560Z,19.25
2019-04-16T12:56:47.896Z,18.78
2019-04-16T12:59:55.001Z,19.64
2019-04-16T13:03:09.505Z,19.64
2019-04-16T13:06:14.849Z,17.75
2019-04-16T13:09:20.189Z,19.04
2019-04-16T13:12:34.690Z,19.13
2019-04-16T13:15:42.921Z,17.76
2019-04-16T13:19:03.529Z,17.56
2019-04-16T13:22:26.461Z,20.56
2019-04-16T13:25:37.421Z,21.59
2019-04-16T13:28:41.039Z,20.17
2019-04-16T13:31:44.673Z,20.11
2019-04-16T13:34:48.310Z,19.74
2019-04-16T13:37:51.955Z,19.32
2019-04-16T13:40:55.587Z,20.44
2019-04-16T13:44:00.855Z,19.38
2019-04-16T13:47:05.178Z,19.41
2019-04-16T13:50:13.539Z,21.13
2019-04-16T13:53:18.790Z,23.21
2019-04-16T13:56:26.556Z,24.42
2019-04-16T13:59:31.805Z,25.18
2019-04-16T14:02:52.152Z,26.11
2019-04-16T14:05:55.808Z,26.10
2019-04-16T14:08:59.740Z,26.51
2019-04-16T14:12:03.405Z,27.81
2019-04-16T14:15:10.088Z,26.38
2019-04-16T14:18:13.858Z,26.58
2019-04-16T14:21:17.626Z,27.13
2019-04-16T14:24:21.221Z,27.00
2019-04-16T14:27:24.855Z,27.45
2019-04-16T14:30:32.812Z,27.52
2019-04-16T14:33:40.387Z,27.67
2019-04-16T14:36:43.490Z,27.56
2019-04-16T14:39:48.788Z,28.00
2019-04-16T14:42:57.423Z,28.08
2019-04-16T14:46:00.316Z,28.00
2019-04-16T14:49:04.420Z,28.11
2019-04-16T14:52:08.174Z,27.62
2019-04-16T14:55:13.832Z,27.78
2019-04-16T14:58:25.566Z,28.48
2019-04-16T15:01:36.574Z,27.88
2019-04-16T15:04:58.744Z,27.89
2019-04-16T15:08:04.298Z,27.96
2019-04-16T15:11:18.948Z,28.19
2019-04-16T15:14:26.095Z,27.61
2019-04-16T15:17:44.047Z,27.83
2019-04-16T15:20:49.257Z,27.82
2019-04-16T15:24:12.859Z,27.91
2019-04-16T15:27:34.493Z,28.14
2019-04-16T15:30:49.187Z,27.94
2019-04-16T15:34:01.068Z,27.86
2019-04-16T15:37:18.270Z,27.42
2019-04-16T15:40:26.624Z,28.02
2019-04-16T15:43:37.542Z,27.68
2019-04-16T15:47:01.408Z,27.60
2019-04-16T15:50:20.419Z,27.58
2019-04-16T15:53:28.197Z,27.60
2019-04-16T15:56:33.472Z,26.98
2019-04-16T15:59:38.729Z,27.90
2019-04-16T16:03:00.191Z,26.69
2019-04-16T16:06:05.755Z,26.90
2019-04-16T16:09:11.049Z,26.91
2019-04-16T16:12:16.244Z,26.57
2019-04-16T16:15:19.954Z,26.81
2019-04-16T16:18:23.575Z,27.50
2019-04-16T16:21:27.130Z,27.48
2019-04-16T16:24:31.020Z,27.31
2019-04-16T16:27:34.593Z,28.80
2019-04-16T16:30:41.600Z,29.58
2019-04-16T16:33:47.177Z,30.09
2019-04-16T16:36:50.691Z,30.37
2019-04-16T16:39:55.831Z,30.33
2019-04-16T16:43:01.011Z,30.59
2019-04-16T16:46:18.665Z,30.66
2019-04-16T16:49:22.494Z,30.78
2019-04-16T16:52:36.655Z,31.15
2019-04-16T16:55:41.846Z,31.19
2019-04-16T16:58:50.521Z,31.55
2019-04-16T17:02:12.394Z,31.41
2019-04-16T17:05:21.008Z,31.67
2019-04-16T17:08:27.080Z,31.64
2019-04-16T17:11:30.358Z,31.85
2019-04-16T17:14:37.726Z,31.41
2019-04-16T17:17:39.502Z,31.60
2019-04-16T17:20:43.527Z,31.75
2019-04-16T17:23:48.520Z,31.61
2019-04-16T17:26:53.533Z,31.74
2019-04-16T17:29:58.172Z,31.64
2019-04-16T17:33:07.628Z,32.04
2019-04-16T17:36:14.821Z,32.33
2019-04-16T17:39:20.300Z,32.13
2019-04-16T17:42:34.257Z,32.68
2019-04-16T17:45:57.188Z,32.48
2019-04-16T17:49:25.709Z,32.39
2019-04-16T17:52:38.094Z,32.74
2019-04-16T17:56:05.088Z,32.69
2019-04-16T17:59:16.557Z,32.48
2019-04-16T18:02:46.574Z,32.67
2019-04-16T18:06:10.043Z,32.81
2019-04-16T18:09:20.445Z,32.86
2019-04-16T18:12:39.965Z,32.48
2019-04-16T18:15:53.819Z,32.44
2019-04-16T18:19:09.379Z,32.46
2019-04-16T18:22:15.842Z,32.25
2019-04-16T18:25:24.728Z,33.01
2019-04-16T18:28:37.276Z,32.12
2019-04-16T18:31:47.616Z,32.07
2019-04-16T18:35:16.107Z,32.37
2019-04-16T18:38:22.238Z,32.68
2019-04-16T18:41:45.866Z,32.79
2019-04-16T18:44:56.184Z,33.05
2019-04-16T18:48:05.369Z,32.91
2019-04-16T18:51:07.513Z,33.22
2019-04-16T18:54:11.364Z,33.54
2019-04-16T18:57:16.803Z,33.84
2019-04-16T19:00:33.156Z,33.94
2019-04-16T19:03:38.605Z,34.09
2019-04-16T19:06:45.804Z,34.14
2019-04-16T19:09:53.249Z,34.33
2019-04-16T19:12:57.401Z,34.81
2019-04-16T19:16:01.029Z,34.91
2019-04-16T19:19:11.952Z,34.98
2019-04-16T19:22:17.321Z,35.06
2019-04-16T19:25:21.142Z,35.11
2019-04-16T19:28:28.053Z,35.38
2019-04-16T19:31:31.741Z,35.26
2019-04-16T19:34:40.918Z,35.75
2019-04-16T19:37:43.820Z,35.67
2019-04-16T19:40:50.902Z,35.79
2019-04-16T19:43:55.932Z,35.97
2019-04-16T19:46:59.528Z,36.05
2019-04-16T19:50:03.372Z,36.14
2019-04-16T19:53:13.763Z,36.32
2019-04-16T19:56:19.601Z,36.49
2019-04-16T19:59:23.475Z,36.80
2019-04-16T20:02:32.989Z,37.09
2019-04-16T20:05:33.911Z,37.09
2019-04-16T20:08:40.888Z,37.36
2019-04-16T20:11:54.737Z,37.53
2019-04-16T20:14:58.984Z,37.74
2019-04-16T20:18:06.154Z,37.86
2019-04-16T20:21:13.564Z,38.03
2019-04-16T20:24:16.882Z,37.86
2019-04-16T20:27:21.664Z,38.17
2019-04-16T20:30:25.477Z,38.34
2019-04-16T20:33:29.250Z,38.60
2019-04-16T20:36:33.085Z,38.62
2019-04-16T20:39:40.550Z,38.53
2019-04-16T20:42:42.156Z,38.83
2019-04-16T20:45:45.728Z,39.01
2019-04-16T20:48:49.364Z,39.22
2019-04-16T20:51:56.579Z,39.04
2019-04-16T20:54:58.238Z,39.46
2019-04-16T20:58:01.811Z,39.21
2019-04-16T21:01:05.563Z,39.57
2019-04-16T21:04:09.106Z,39.23
2019-04-16T21:07:15.356Z,39.31
2019-04-16T21:10:18.204Z,39.50
2019-04-16T21:13:21.890Z,39.29
2019-04-16T21:16:25.457Z,39.46
2019-04-16T21:19:46.390Z,39.44
2019-04-16T21:22:49.937Z,39.55
2019-04-16T21:25:53.471Z,39.49
2019-04-16T21:29:02.108Z,39.70
2019-04-16T21:32:05.591Z,39.63
2019-04-16T21:35:16.763Z,39.80
2019-04-16T21:38:24.878Z,39.88
2019-04-16T21:41:29.607Z,40.05
2019-04-16T21:44:33.279Z,40.10
2019-04-16T21:47:36.875Z,39.97
2019-04-16T21:50:40.475Z,39.91
2019-04-16T21:53:44.087Z,40.01
2019-04-16T21:56:48.306Z,40.23
2019-04-16T21:59:56.853Z,40.04
2019-04-16T22:02:57.276Z,40.08
2019-04-16T22:06:00.865Z,40.08
2019-04-16T22:09:06.392Z,40.28
2019-04-16T22:12:15.224Z,40.07
2019-04-16T22:15:15.604Z,40.27
2019-04-16T22:18:19.706Z,40.70
2019-04-16T22:21:23.259Z,40.62
2019-04-16T22:24:26.891Z,40.84
2019-04-16T22:27:30.383Z,40.75
2019-04-16T22:30:33.991Z,41.08
2019-04-16T22:33:37.535Z,41.08
2019-04-16T22:36:41.169Z,41.32
2019-04-16T22:39:50.779Z,41.35
2019-04-16T22:43:07.055Z,41.49
2019-04-16T22:46:24.085Z,41.61
2019-04-16T22:49:28.009Z,41.53
2019-04-16T22:52:31.594Z,41.66
2019-04-16T22:55:35.217Z,41.92
2019-04-16T22:58:48.717Z,42.08
2019-04-16T23:01:53.403Z,41.98
2019-04-16T23:04:58.307Z,42.33
2019-04-16T23:08:02.805Z,42.23
2019-04-16T23:11:06.417Z,42.21
2019-04-16T23:14:10.012Z,42.48
2019-04-16T23:17:14.366Z,42.31
2019-04-16T23:20:29.258Z,42.44
2019-04-16T23:23:23.483Z,42.12
2019-04-16T23:26:32.158Z,42.30
2019-04-16T23:29:32.553Z,42.29
2019-04-16T23:32:36.027Z,42.35
2019-04-16T23:35:44.333Z,42.66
2019-04-16T23:38:44.929Z,42.57
2019-04-16T23:41:49.299Z,42.61
2019-04-16T23:44:54.810Z,42.89
2019-04-16T23:48:01.405Z,42.77
2019-04-16T23:51:08.981Z,43.07
2019-04-16T23:54:26.347Z,43.35
2019-04-16T23:57:43.564Z,43.46
